createdAt,value
2022-12-23T00:00:11.479Z,99550.25
2022-12-23T00:00:49.027Z,99534.31
2022-12-23T00:01:21.335Z,99545.97
2022-12-23T00:01:56.220Z,99538.81
2022-12-23T00:02:29.836Z,99540.44
2022-12-23T00:03:02.322Z,99539.38
2022-12-23T00:03:35.327Z,99544.69
2022-12-23T00:04:11.214Z,99542.03
2022-12-23T00:04:43.609Z,99544.69
2022-12-23T00:05:15.853Z,99539.16
2022-12-23T00:05:50.523Z,99538.13
2022-12-23T00:06:22.646Z,99542.63
2022-12-23T00:06:57.333Z,99538.94
2022-12-23T00:07:29.459Z,99537.09
2022-12-23T00:08:01.546Z,99543.19
2022-12-23T00:08:37.625Z,99539.50
2022-12-23T00:09:09.690Z,99532.56
2022-12-23T00:09:41.798Z,99537.09
2022-12-23T00:10:16.479Z,99535.47
2022-12-23T00:10:49.577Z,99533.84
2022-12-23T00:11:21.699Z,99527.50
2022-12-23T00:12:08.858Z,99529.34
2022-12-23T00:13:01.563Z,99534.06
2022-12-23T00:13:48.676Z,99522.88
2022-12-23T00:14:35.846Z,99531.06
2022-12-23T00:15:11.830Z,99526.78
2022-12-23T00:15:46.578Z,99534.75
2022-12-23T00:16:18.751Z,99523.31
2022-12-23T00:16:53.667Z,99516.94
2022-12-23T00:17:26.116Z,99514.53
2022-12-23T00:17:58.191Z,99517.19
2022-12-23T00:18:30.485Z,99522.28
2022-12-23T00:19:05.223Z,99513.25
2022-12-23T00:19:37.312Z,99518.56
2022-12-23T00:20:12.325Z,99513.47
2022-12-23T00:20:44.374Z,99516.13
2022-12-23T00:21:20.225Z,99522.50
2022-12-23T00:21:52.309Z,99512.91
2022-12-23T00:22:44.409Z,99520.28
2022-12-23T00:23:19.072Z,99515.22
2022-12-23T00:23:52.211Z,99512.56
2022-12-23T00:24:24.470Z,99510.69
2022-12-23T00:24:59.145Z,99505.16
2022-12-23T00:25:45.023Z,99510.25
2022-12-23T00:26:21.992Z,99507.81
2022-12-23T00:26:54.763Z,99508.63
2022-12-23T00:27:29.656Z,99509.44
2022-12-23T00:28:03.929Z,99506.78
2022-12-23T00:28:38.588Z,99504.13
2022-12-23T00:29:10.678Z,99504.13
2022-12-23T00:29:42.784Z,99501.25
2022-12-23T00:30:17.643Z,99506.56
2022-12-23T00:30:54.285Z,99504.69
2022-12-23T00:31:29.305Z,99505.75
2022-12-23T00:32:01.550Z,99510.00
2022-12-23T00:32:33.736Z,99508.16
2022-12-23T00:33:06.064Z,99501.47
2022-12-23T00:33:42.422Z,99513.13
2022-12-23T00:34:14.622Z,99503.53
2022-12-23T00:34:46.852Z,99501.13
2022-12-23T00:35:21.540Z,99510.69
2022-12-23T00:35:54.296Z,99500.31
2022-12-23T00:36:31.919Z,99504.81
2022-12-23T00:37:04.070Z,99503.19
2022-12-23T00:37:36.156Z,99512.19
2022-12-23T00:38:08.314Z,99512.78
2022-12-23T00:38:55.512Z,99506.66
2022-12-23T00:39:42.676Z,99510.34
2022-12-23T00:40:30.726Z,99505.72
2022-12-23T00:41:17.918Z,99505.72
2022-12-23T00:42:05.068Z,99512.31
2022-12-23T00:42:52.193Z,99508.00
2022-12-23T00:43:27.106Z,99500.25
2022-12-23T00:43:59.382Z,99507.78
2022-12-23T00:44:31.820Z,99500.63
2022-12-23T00:45:18.099Z,99498.34
2022-12-23T00:45:53.123Z,99494.84
2022-12-23T00:46:25.491Z,99499.38
2022-12-23T00:47:00.575Z,99489.53
2022-12-23T00:47:47.701Z,99496.72
2022-12-23T00:48:34.855Z,99487.56
2022-12-23T00:49:22.401Z,99495.75
2022-12-23T00:49:54.499Z,99491.50
2022-12-23T00:50:27.442Z,99494.94
2022-12-23T00:51:02.196Z,99486.97
2022-12-23T00:51:34.487Z,99484.31
2022-12-23T00:52:09.218Z,99487.56
2022-12-23T00:52:41.339Z,99492.88
2022-12-23T00:53:16.079Z,99492.66
2022-12-23T00:53:48.161Z,99500.63
2022-12-23T00:54:20.406Z,99489.41
2022-12-23T00:54:55.106Z,99490.44
2022-12-23T00:55:27.338Z,99492.88
2022-12-23T00:55:59.443Z,99483.06
2022-12-23T00:56:34.509Z,99476.72
2022-12-23T00:57:06.885Z,99486.06
2022-12-23T00:57:38.944Z,99485.03
2022-12-23T00:58:13.628Z,99482.94
2022-12-23T00:58:45.727Z,99485.59
2022-12-23T00:59:17.924Z,99483.75
2022-12-23T00:59:52.615Z,99479.84
2022-12-23T01:00:47.643Z,99486.78
2022-12-23T01:01:37.794Z,99488.06
2022-12-23T01:02:26.481Z,99484.59
2022-12-23T01:03:13.865Z,99484.59
2022-12-23T01:04:01.075Z,99483.75
2022-12-23T01:04:48.382Z,99489.91
2022-12-23T01:05:35.896Z,99488.28
2022-12-23T01:06:10.663Z,99486.66
2022-12-23T01:06:42.807Z,99481.34
2022-12-23T01:07:14.993Z,99479.25
2022-12-23T01:07:49.655Z,99473.94
2022-12-23T01:08:21.756Z,99476.38
2022-12-23T01:08:53.868Z,99472.69
2022-12-23T01:09:29.004Z,99478.81
2022-12-23T01:10:01.136Z,99480.44
2022-12-23T01:10:34.905Z,99480.22
2022-12-23T01:11:11.391Z,99482.41
2022-12-23T01:11:43.518Z,99478.94
2022-12-23T01:12:15.767Z,99477.91
2022-12-23T01:12:50.501Z,99473.41
2022-12-23T01:13:22.665Z,99489.13
2022-12-23T01:13:54.751Z,99480.09
2022-12-23T01:14:29.642Z,99480.91
2022-12-23T01:15:01.854Z,99488.06
2022-12-23T01:15:34.348Z,99481.72
2022-12-23T01:16:13.481Z,99485.19
2022-12-23T01:16:54.342Z,99478.50
2022-12-23T01:17:26.547Z,99484.84
2022-12-23T01:17:58.976Z,99485.66
2022-12-23T01:18:33.721Z,99484.25
2022-12-23T01:19:06.018Z,99479.53
2022-12-23T01:19:38.468Z,99479.53
2022-12-23T01:20:12.109Z,99482.19
2022-12-23T01:20:46.828Z,99495.47
2022-12-23T01:21:18.927Z,99484.25
2022-12-23T01:21:51.051Z,99488.75
2022-12-23T01:22:25.720Z,99480.78
2022-12-23T01:22:57.813Z,99496.72
2022-12-23T01:23:30.146Z,99485.31
2022-12-23T01:24:05.192Z,99485.31
2022-12-23T01:24:37.377Z,99486.56
2022-12-23T01:25:10.208Z,99491.06
2022-12-23T01:25:44.874Z,99488.41
2022-12-23T01:26:17.034Z,99482.28
2022-12-23T01:26:49.210Z,99480.44
2022-12-23T01:27:23.957Z,99483.91
2022-12-23T01:27:56.072Z,99482.06
2022-12-23T01:28:29.239Z,99482.06
2022-12-23T01:29:05.065Z,99490.84
2022-12-23T01:29:37.155Z,99479.38
2022-12-23T01:30:10.315Z,99484.72
2022-12-23T01:30:44.995Z,99485.75
2022-12-23T01:31:17.106Z,99485.75
2022-12-23T01:31:52.040Z,99488.41
2022-12-23T01:32:26.749Z,99485.75
2022-12-23T01:32:58.844Z,99496.97
2022-12-23T01:33:32.272Z,99480.44
2022-12-23T01:34:07.058Z,99476.38
2022-12-23T01:34:39.202Z,99480.69
2022-12-23T01:35:11.322Z,99478.44
2022-12-23T01:35:46.120Z,99475.22
2022-12-23T01:36:18.702Z,99488.72
2022-12-23T01:36:50.832Z,99475.44
2022-12-23T01:37:25.854Z,99482.38
2022-12-23T01:37:57.935Z,99480.75
2022-12-23T01:38:30.497Z,99476.47
2022-12-23T01:39:05.208Z,99483.41
2022-12-23T01:39:37.326Z,99479.72
2022-12-23T01:40:10.483Z,99477.63
2022-12-23T01:40:47.509Z,99475.56
2022-12-23T01:41:37.174Z,99478.00
2022-12-23T01:42:28.199Z,99479.84
2022-12-23T01:43:00.319Z,99482.13
2022-12-23T01:43:46.614Z,99477.63
2022-12-23T01:45:04.383Z,99487.44
2022-12-23T01:45:36.540Z,99481.78
2022-12-23T01:46:08.695Z,99488.28
2022-12-23T01:46:43.455Z,99475.56
2022-12-23T01:47:22.587Z,99472.91
2022-12-23T01:48:00.402Z,99468.06
2022-12-23T01:48:32.488Z,99467.47
2022-12-23T01:49:04.587Z,99467.47
2022-12-23T01:49:39.495Z,99469.09
2022-12-23T01:50:14.958Z,99473.59
2022-12-23T01:50:54.292Z,99475.22
2022-12-23T01:51:29.200Z,99478.91
2022-12-23T01:52:01.368Z,99468.28
2022-12-23T01:52:38.872Z,99469.91
2022-12-23T01:53:15.340Z,99470.94
2022-12-23T01:53:50.590Z,99477.28
2022-12-23T01:54:25.282Z,99470.34
2022-12-23T01:54:57.956Z,99465.28
2022-12-23T01:55:35.930Z,99465.84
2022-12-23T01:56:12.212Z,99468.75
2022-12-23T01:56:44.454Z,99465.84
2022-12-23T01:57:19.419Z,99464.81
2022-12-23T01:57:53.396Z,99464.59
2022-12-23T01:58:33.291Z,99470.72
2022-12-23T01:59:08.994Z,99467.47
2022-12-23T01:59:57.304Z,99466.66
2022-12-23T02:00:53.163Z,99469.53
2022-12-23T02:01:40.538Z,99478.78
2022-12-23T02:02:27.920Z,99473.69
2022-12-23T02:04:07.687Z,99472.09
2022-12-23T02:04:40.069Z,99471.63
2022-12-23T02:05:12.612Z,99467.13
2022-12-23T02:05:46.010Z,99474.63
2022-12-23T02:06:37.329Z,99476.47
2022-12-23T02:07:26.327Z,99476.94
2022-12-23T02:08:13.545Z,99469.19
2022-12-23T02:09:00.628Z,99468.84
2022-12-23T02:09:37.068Z,99458.22
2022-12-23T02:10:10.236Z,99465.97
2022-12-23T02:11:01.110Z,99478.22
2022-12-23T02:11:55.839Z,99474.16
2022-12-23T02:12:41.943Z,99463.75
2022-12-23T02:13:24.117Z,99477.03
2022-12-23T02:14:29.426Z,99471.72
2022-12-23T02:15:53.091Z,99470.34
2022-12-23T02:16:25.993Z,99466.72
2022-12-23T02:17:05.988Z,99466.28
2022-12-23T02:17:53.515Z,99467.69
2022-12-23T02:18:47.027Z,99466.06
2022-12-23T02:19:41.080Z,99469.53
2022-12-23T02:20:46.135Z,99467.91
2022-12-23T02:21:44.843Z,99468.72
2022-12-23T02:22:34.011Z,99466.88
2022-12-23T02:23:35.605Z,99468.72
2022-12-23T02:24:37.686Z,99466.88
2022-12-23T02:25:45.973Z,99465.84
2022-12-23T02:26:41.579Z,99466.06
2022-12-23T02:27:19.989Z,99458.69
2022-12-23T02:28:08.872Z,99464.34
2022-12-23T02:29:09.645Z,99464.69
2022-12-23T02:29:56.481Z,99465.38
2022-12-23T02:30:43.421Z,99456.72
2022-12-23T02:31:24.186Z,99468.50
2022-12-23T08:13:56.032Z,99470.41
2022-12-23T08:14:28.186Z,99462.28
2022-12-23T08:15:02.919Z,99469.44
2022-12-23T08:15:34.994Z,99463.56
2022-12-23T08:16:08.605Z,99467.47
2022-12-23T08:16:44.291Z,99469.91
2022-12-23T08:17:16.718Z,99472.22
2022-12-23T08:17:48.918Z,99463.44
2022-12-23T08:18:23.573Z,99468.13
2022-12-23T08:18:55.713Z,99472.63
2022-12-23T08:19:30.381Z,99468.38
2022-12-23T08:20:02.578Z,99472.06
2022-12-23T08:20:34.650Z,99463.88
2022-12-23T08:21:11.634Z,99472.41
2022-12-23T08:21:43.691Z,99474.06
2022-12-23T08:22:16.004Z,99466.66
2022-12-23T08:22:50.736Z,99466.44
2022-12-23T08:23:25.101Z,99465.88
2022-12-23T08:23:57.587Z,99465.06
2022-12-23T08:24:32.344Z,99468.53
2022-12-23T08:25:05.266Z,99462.41
2022-12-23T08:25:37.392Z,99474.63
2022-12-23T08:26:14.222Z,99469.09
2022-12-23T08:26:46.281Z,99471.75
2022-12-23T08:27:21.033Z,99469.69
2022-12-23T08:27:53.110Z,99458.81
2022-12-23T08:28:25.316Z,99459.06
2022-12-23T08:29:03.551Z,99449.00
2022-12-23T08:29:36.629Z,99462.53
2022-12-23T08:30:10.513Z,99458.59
2022-12-23T08:30:45.345Z,99458.00
2022-12-23T08:31:20.376Z,99462.53
2022-12-23T08:31:54.215Z,99458.00
2022-12-23T08:32:29.876Z,99460.66
2022-12-23T08:33:01.974Z,99462.28
2022-12-23T08:33:35.040Z,99469.22
2022-12-23T08:34:10.699Z,99451.66
2022-12-23T08:34:42.850Z,99457.56
2022-12-23T08:35:14.980Z,99461.03
2022-12-23T08:35:49.787Z,99452.84
2022-12-23T08:36:23.920Z,99457.94
2022-12-23T08:36:56.145Z,99448.69
2022-12-23T08:37:30.799Z,99450.31
2022-12-23T08:38:02.859Z,99448.25
2022-12-23T08:38:35.605Z,99432.88
2022-12-23T08:39:13.075Z,99450.44
2022-12-23T08:39:45.267Z,99445.13
2022-12-23T08:40:19.978Z,99446.50
2022-12-23T08:41:01.074Z,99448.59
2022-12-23T08:41:39.109Z,99440.84
2022-12-23T08:42:11.273Z,99434.72
2022-12-23T08:42:45.995Z,99439.59
2022-12-23T08:43:18.063Z,99439.13
2022-12-23T08:43:50.653Z,99429.88
2022-12-23T08:44:28.672Z,99436.59
2022-12-23T08:45:01.188Z,99429.66
2022-12-23T08:45:37.330Z,99431.84
2022-12-23T08:46:12.568Z,99422.84
2022-12-23T08:46:45.559Z,99428.75
2022-12-23T08:47:20.318Z,99432.81
2022-12-23T08:47:52.537Z,99441.38
2022-12-23T08:48:24.777Z,99433.75
2022-12-23T08:48:59.795Z,99436.19
2022-12-23T08:49:31.920Z,99436.75
2022-12-23T08:50:04.766Z,99433.06
2022-12-23T08:50:43.721Z,99436.53
2022-12-23T08:51:17.850Z,99432.25
2022-12-23T08:51:50.087Z,99442.88
2022-12-23T08:52:24.750Z,99441.84
2022-12-23T08:52:56.826Z,99442.41
2022-12-23T08:53:29.253Z,99442.19
2022-12-23T08:54:04.190Z,99437.47
2022-12-23T08:54:36.321Z,99442.78
2022-12-23T08:55:11.727Z,99439.06
2022-12-23T08:55:47.015Z,99431.09
2022-12-23T08:56:24.186Z,99439.66
2022-12-23T08:56:56.376Z,99437.00
2022-12-23T08:57:28.459Z,99438.38
2022-12-23T08:58:03.105Z,99445.09
2022-12-23T08:58:38.314Z,99446.47
2022-12-23T08:59:19.637Z,99451.78
2022-12-23T08:59:54.805Z,99444.41
2022-12-23T09:00:27.167Z,99451.31
2022-12-23T09:01:06.180Z,99451.91
2022-12-23T09:01:38.357Z,99447.41
2022-12-23T09:02:14.556Z,99460.22
2022-12-23T09:02:47.080Z,99455.50
2022-12-23T09:03:19.451Z,99457.13
2022-12-23T09:03:55.120Z,99461.38
2022-12-23T09:04:27.314Z,99457.47
2022-12-23T09:05:02.043Z,99452.72
2022-12-23T09:05:38.972Z,99456.19
2022-12-23T09:06:16.416Z,99450.44
2022-12-23T09:06:48.523Z,99453.66
2022-12-23T09:07:23.187Z,99455.06
2022-12-23T09:07:55.300Z,99457.25
2022-12-23T09:08:27.478Z,99455.13
2022-12-23T09:09:02.338Z,99450.19
2022-12-23T09:09:34.450Z,99455.03
2022-12-23T09:10:10.635Z,99453.75
2022-12-23T09:10:43.657Z,99460.47
2022-12-23T09:11:20.515Z,99457.13
2022-12-23T09:11:52.576Z,99461.75
2022-12-23T09:12:24.691Z,99459.41
2022-12-23T09:12:59.383Z,99464.59
2022-12-23T09:13:35.563Z,99465.78
2022-12-23T09:14:10.276Z,99457.31
2022-12-23T09:14:47.745Z,99461.13
2022-12-23T09:15:22.541Z,99475.78
2022-12-23T09:15:55.144Z,99464.13
2022-12-23T09:16:30.729Z,99462.84
2022-12-23T09:17:02.920Z,99456.72
2022-12-23T09:17:37.838Z,99453.25
2022-12-23T09:18:10.328Z,99454.50
2022-12-23T09:18:42.590Z,99462.75
2022-12-23T09:19:17.336Z,99468.63
2022-12-23T09:19:53.022Z,99470.25
2022-12-23T09:20:25.457Z,99470.25
2022-12-23T09:21:01.575Z,99469.78
2022-12-23T09:21:33.936Z,99472.78
2022-12-23T09:22:06.057Z,99465.16
2022-12-23T09:22:40.856Z,99461.78
2022-12-23T09:23:13.167Z,99459.22
2022-12-23T09:23:45.475Z,99457.44
2022-12-23T09:24:20.185Z,99454.34
2022-12-23T09:24:52.245Z,99458.34
2022-12-23T09:25:24.391Z,99453.03
2022-12-23T09:25:59.267Z,99447.72
2022-12-23T09:26:32.467Z,99449.09
2022-12-23T09:27:04.724Z,99443.53
2022-12-23T09:27:39.445Z,99444.91
2022-12-23T09:28:12.024Z,99444.44
2022-12-23T09:28:44.091Z,99445.81
2022-12-23T09:29:18.753Z,99450.41
2022-12-23T09:29:51.069Z,99447.75
2022-12-23T09:30:25.758Z,99454.25
2022-12-23T09:31:00.580Z,99456.91
2022-12-23T09:31:37.159Z,99454.81
2022-12-23T09:32:12.489Z,99452.72
2022-12-23T09:32:44.616Z,99452.72
2022-12-23T09:33:19.886Z,99441.25
2022-12-23T09:33:53.857Z,99442.84
2022-12-23T09:34:26.761Z,99449.81
2022-12-23T09:35:01.516Z,99449.56
2022-12-23T09:35:33.596Z,99449.09
2022-12-23T09:36:06.641Z,99445.97
2022-12-23T09:36:41.400Z,99441.19
2022-12-23T09:37:16.587Z,99437.47
2022-12-23T09:37:51.264Z,99432.16
2022-12-23T09:38:23.346Z,99427.06
2022-12-23T09:38:56.325Z,99425.44
2022-12-23T09:39:31.146Z,99420.09
2022-12-23T09:40:04.334Z,99429.97
2022-12-23T09:40:41.784Z,99431.84
2022-12-23T09:41:27.433Z,99429.16
2022-12-23T09:42:09.979Z,99430.44
2022-12-23T09:42:57.565Z,99438.44
2022-12-23T09:43:42.539Z,99435.22
2022-12-23T09:44:43.278Z,99435.59
2022-12-23T09:45:22.853Z,99433.28
2022-12-23T09:46:06.981Z,99445.25
2022-12-23T09:46:48.132Z,99442.81
2022-12-23T09:47:23.376Z,99436.13
2022-12-23T09:47:59.400Z,99432.41
2022-12-23T09:48:36.424Z,99437.97
2022-12-23T09:49:16.636Z,99430.22
2022-12-23T09:49:53.427Z,99434.41
2022-12-23T09:50:28.873Z,99429.06
2022-12-23T09:51:05.707Z,99425.59
2022-12-23T09:51:38.469Z,99415.75
2022-12-23T09:52:16.731Z,99418.19
2022-12-23T09:53:00.014Z,99426.19
2022-12-23T09:53:45.262Z,99418.19
2022-12-23T09:54:24.074Z,99412.88
2022-12-23T09:54:56.571Z,99419.81
2022-12-23T09:55:38.116Z,99417.69
2022-12-23T09:56:22.473Z,99415.84
2022-12-23T09:56:58.604Z,99414.56
2022-12-23T09:57:43.253Z,99416.19
2022-12-23T09:58:23.397Z,99411.44
2022-12-23T09:59:06.143Z,99407.47
2022-12-23T09:59:51.665Z,99404.34
2022-12-23T10:00:27.125Z,99414.53
2022-12-23T10:01:14.048Z,99423.66
2022-12-23T10:01:55.236Z,99440.53
2022-12-23T10:02:39.580Z,99435.31
2022-12-23T10:03:23.400Z,99433.59
2022-12-23T10:04:32.143Z,99436.47
2022-12-23T10:05:15.062Z,99433.16
2022-12-23T10:05:59.237Z,99441.56
2022-12-23T10:06:37.147Z,99435.50
2022-12-23T10:07:23.908Z,99431.63
2022-12-23T10:08:04.536Z,99434.94
2022-12-23T10:08:40.454Z,99434.44
2022-12-23T10:09:17.619Z,99433.47
2022-12-23T10:09:53.291Z,99442.63
2022-12-23T10:10:35.405Z,99436.53
2022-12-23T10:11:14.340Z,99429.66
2022-12-23T10:11:53.420Z,99428.59
2022-12-23T10:12:39.777Z,99418.72
2022-12-23T10:13:27.997Z,99427.53
2022-12-23T10:14:03.290Z,99426.19
2022-12-23T10:14:39.402Z,99422.47
2022-12-23T10:15:20.920Z,99425.16
2022-12-23T10:15:59.020Z,99427.22
2022-12-23T10:16:39.354Z,99435.00
2022-12-23T10:17:18.938Z,99427.47
2022-12-23T10:17:55.725Z,99440.81
2022-12-23T10:18:43.774Z,99429.31
2022-12-23T10:19:21.318Z,99424.25
2022-12-23T10:20:00.437Z,99424.25
2022-12-23T10:20:39.921Z,99426.94
2022-12-23T10:21:19.394Z,99421.59
2022-12-23T10:21:55.420Z,99425.31
2022-12-23T10:22:38.507Z,99413.00
2022-12-23T10:23:17.115Z,99417.53
2022-12-23T10:23:55.276Z,99419.16
2022-12-23T10:24:33.702Z,99419.16
2022-12-23T10:25:14.231Z,99422.31
2022-12-23T10:25:53.723Z,99420.13
2022-12-23T10:26:32.265Z,99424.09
2022-12-23T10:27:14.721Z,99422.75
2022-12-23T10:27:46.843Z,99414.16
2022-12-23T10:28:19.197Z,99416.00
2022-12-23T10:29:01.615Z,99428.88
2022-12-23T10:29:34.681Z,99421.34
2022-12-23T10:30:34.213Z,99419.72
2022-12-23T10:31:39.407Z,99423.38
2022-12-23T10:32:22.762Z,99416.94
2022-12-23T10:33:06.733Z,99424.34
2022-12-23T10:33:46.959Z,99423.31
2022-12-23T10:34:29.969Z,99424.94
2022-12-23T10:35:11.821Z,99422.25
2022-12-23T10:35:54.370Z,99414.81
2022-12-23T10:36:34.299Z,99415.63
2022-12-23T10:37:14.761Z,99413.75
2022-12-23T10:37:51.862Z,99410.78
2022-12-23T10:38:42.753Z,99413.44
2022-12-23T10:39:25.039Z,99411.59
2022-12-23T10:40:12.268Z,99397.75
2022-12-23T10:40:52.644Z,99398.34
2022-12-23T10:41:33.204Z,99398.34
2022-12-23T10:42:18.090Z,99393.56
2022-12-23T10:43:01.592Z,99394.13
2022-12-23T10:43:45.952Z,99393.06
2022-12-23T10:44:39.243Z,99395.25
2022-12-23T10:45:29.024Z,99387.50
2022-12-23T10:46:13.285Z,99389.13
2022-12-23T10:46:56.281Z,99393.63
2022-12-23T10:47:48.529Z,99389.13
2022-12-23T10:48:34.489Z,99389.91
2022-12-23T10:49:18.724Z,99395.25
2022-12-23T10:50:02.558Z,99390.97
2022-12-23T10:50:56.788Z,99396.53
2022-12-23T10:51:32.502Z,99395.72
2022-12-23T10:52:12.138Z,99393.06
2022-12-23T10:52:49.061Z,99401.06
2022-12-23T10:53:31.316Z,99397.34
2022-12-23T10:54:12.604Z,99403.81
2022-12-23T10:54:46.499Z,99405.66
2022-12-23T10:55:26.124Z,99400.41
2022-12-23T10:56:04.315Z,99402.34
2022-12-23T10:56:37.276Z,99400.56
2022-12-23T10:57:12.438Z,99397.16
2022-12-23T10:57:44.632Z,99394.56
2022-12-23T10:58:18.575Z,99395.69
2022-12-23T10:58:57.898Z,99387.75
2022-12-23T10:59:34.987Z,99387.25
2022-12-23T11:00:20.951Z,99392.06
2022-12-23T11:00:55.376Z,99400.16
2022-12-23T11:01:32.006Z,99395.72
2022-12-23T11:02:22.696Z,99392.88
2022-12-23T11:03:10.330Z,99401.44
2022-12-23T11:03:46.427Z,99397.78
2022-12-23T11:04:28.425Z,99391.44
2022-12-23T11:05:00.601Z,99395.25
2022-12-23T11:05:34.609Z,99383.25
2022-12-23T11:06:11.344Z,99379.75
2022-12-23T11:06:46.749Z,99377.91
2022-12-23T11:08:17.199Z,99387.03
2022-12-23T11:08:50.283Z,99385.16
2022-12-23T11:09:27.962Z,99385.16
2022-12-23T11:10:04.972Z,99385.41
2022-12-23T11:10:37.568Z,99390.22
2022-12-23T11:11:12.296Z,99386.50
2022-12-23T11:11:59.979Z,99386.50
2022-12-23T11:12:43.814Z,99397.16
2022-12-23T11:13:25.897Z,99397.47
2022-12-23T11:14:00.563Z,99386.84
2022-12-23T11:14:38.337Z,99387.38
2022-12-23T11:15:26.880Z,99390.28
2022-12-23T11:16:15.069Z,99392.50
2022-12-23T11:16:47.300Z,99391.44
2022-12-23T11:17:25.340Z,99393.03
2022-12-23T11:18:05.818Z,99387.22
2022-12-23T11:18:42.113Z,99388.50
2022-12-23T11:19:16.018Z,99387.44
2022-12-23T11:19:48.642Z,99393.09
2022-12-23T11:20:23.725Z,99381.94
2022-12-23T11:21:04.234Z,99388.91
2022-12-23T11:21:38.639Z,99393.75
2022-12-23T11:22:22.598Z,99380.50
2022-12-23T11:23:01.824Z,99388.63
2022-12-23T11:23:36.811Z,99382.03
2022-12-23T11:24:23.168Z,99377.03
2022-12-23T11:24:55.408Z,99382.25
2022-12-23T11:25:31.196Z,99381.31
2022-12-23T11:26:09.160Z,99391.31
2022-12-23T11:26:41.453Z,99382.41
2022-12-23T11:27:18.840Z,99377.44
2022-12-23T11:27:53.380Z,99377.34
2022-12-23T11:28:28.417Z,99378.72
2022-12-23T11:29:07.271Z,99373.13
2022-12-23T11:29:47.693Z,99369.88
2022-12-23T11:30:20.266Z,99362.03
2022-12-23T11:30:58.495Z,99363.59
2022-12-23T11:31:35.373Z,99365.72
2022-12-23T11:32:19.850Z,99375.53
2022-12-23T11:32:52.189Z,99374.34
2022-12-23T11:33:32.667Z,99380.84
2022-12-23T11:34:07.463Z,99376.84
2022-12-23T11:34:42.309Z,99381.22
2022-12-23T11:35:25.916Z,99364.34
2022-12-23T11:36:03.456Z,99383.75
2022-12-23T11:36:38.311Z,99379.78
2022-12-23T11:37:25.095Z,99384.38
2022-12-23T11:38:01.338Z,99390.28
2022-12-23T11:38:35.374Z,99389.75
2022-12-23T11:39:25.739Z,99396.19
2022-12-23T11:39:57.922Z,99391.06
2022-12-23T11:40:35.369Z,99392.66
2022-12-23T11:41:08.372Z,99389.72
2022-12-23T11:41:44.213Z,99393.44
2022-12-23T11:42:23.155Z,99390.44
2022-12-23T11:42:58.861Z,99388.53
2022-12-23T11:43:32.704Z,99384.75
2022-12-23T11:44:13.036Z,99381.22
2022-12-23T11:44:46.395Z,99385.44
2022-12-23T11:45:25.575Z,99392.88
2022-12-23T11:46:25.482Z,99389.81
2022-12-23T11:47:00.847Z,99386.25
2022-12-23T11:47:38.093Z,99380.25
2022-12-23T11:48:32.910Z,99377.25
2022-12-23T11:49:16.389Z,99378.78
2022-12-23T11:49:52.715Z,99376.59
2022-12-23T11:50:31.721Z,99377.38
2022-12-23T11:51:07.223Z,99383.25
2022-12-23T11:51:39.309Z,99378.94
2022-12-23T11:52:13.455Z,99374.13
2022-12-23T11:52:54.563Z,99372.25
2022-12-23T11:53:27.725Z,99378.66
2022-12-23T11:54:01.369Z,99388.28
2022-12-23T11:54:36.996Z,99386.16
2022-12-23T11:55:23.840Z,99395.50
2022-12-23T11:56:04.153Z,99393.63
2022-12-23T11:56:36.644Z,99394.94
2022-12-23T11:57:19.300Z,99399.47
2022-12-23T11:57:52.760Z,99399.47
2022-12-23T11:58:26.041Z,99401.91
2022-12-23T11:59:06.511Z,99399.22
2022-12-23T11:59:40.956Z,99401.38
2022-12-23T12:00:20.929Z,99398.13
2022-12-23T12:00:59.959Z,99401.31
2022-12-23T12:01:33.295Z,99391.13
2022-12-23T12:02:16.881Z,99390.81
2022-12-23T12:02:52.437Z,99388.38
2022-12-23T12:03:34.533Z,99399.81
2022-12-23T12:04:09.472Z,99384.53
2022-12-23T12:04:42.763Z,99393.03
2022-12-23T12:05:23.063Z,99400.53
2022-12-23T12:05:58.006Z,99391.88
2022-12-23T12:06:34.747Z,99384.13
2022-12-23T12:07:12.267Z,99391.06
2022-12-23T12:07:48.011Z,99386.81
2022-12-23T12:08:24.879Z,99399.59
2022-12-23T12:09:03.190Z,99397.97
2022-12-23T12:09:41.464Z,99396.94
2022-12-23T12:10:21.693Z,99404.69
2022-12-23T12:10:59.862Z,99402.84
2022-12-23T12:11:40.634Z,99404.44
2022-12-23T12:12:16.868Z,99409.78
2022-12-23T12:12:55.188Z,99407.91
2022-12-23T12:13:31.136Z,99416.19
2022-12-23T12:14:07.755Z,99421.53
2022-12-23T12:14:43.943Z,99414.56
2022-12-23T12:15:32.277Z,99422.03
2022-12-23T12:16:17.323Z,99428.38
2022-12-23T12:16:56.574Z,99427.50
2022-12-23T12:17:38.712Z,99429.63
2022-12-23T12:18:14.870Z,99436.50
2022-12-23T12:18:55.490Z,99428.50
2022-12-23T12:19:36.785Z,99431.75
2022-12-23T12:20:14.706Z,99438.38
2022-12-23T12:20:54.408Z,99435.97
2022-12-23T12:21:31.583Z,99436.72
2022-12-23T12:22:17.070Z,99444.44
2022-12-23T12:22:52.643Z,99439.03
2022-12-23T12:23:32.744Z,99443.78
2022-12-23T12:24:18.928Z,99448.00
2022-12-23T12:24:58.332Z,99435.63
2022-12-23T12:25:39.912Z,99440.66
2022-12-23T12:26:23.091Z,99434.78
2022-12-23T12:27:00.858Z,99442.22
2022-12-23T12:27:38.077Z,99434.22
2022-12-23T12:28:16.441Z,99440.88
2022-12-23T12:28:56.887Z,99442.16
2022-12-23T12:29:34.905Z,99441.75
2022-12-23T12:30:11.368Z,99446.03
2022-12-23T12:30:53.149Z,99436.97
2022-12-23T12:31:30.193Z,99443.38
2022-12-23T12:32:06.819Z,99442.03
2022-12-23T12:32:47.297Z,99446.59
2022-12-23T12:33:25.001Z,99458.25
2022-12-23T12:34:05.293Z,99451.06
2022-12-23T12:34:46.740Z,99459.06
2022-12-23T12:35:27.348Z,99463.91
2022-12-23T12:36:14.171Z,99457.84
2022-12-23T12:36:50.958Z,99462.69
2022-12-23T12:37:36.244Z,99469.19
2022-12-23T12:38:17.360Z,99462.28
2022-12-23T12:38:53.430Z,99461.28
2022-12-23T12:39:31.192Z,99455.03
2022-12-23T12:40:26.103Z,99463.66
2022-12-23T12:41:01.793Z,99462.09
2022-12-23T12:41:41.087Z,99460.31
2022-12-23T12:42:17.459Z,99458.59
2022-12-23T12:42:56.957Z,99458.50
2022-12-23T12:43:34.264Z,99463.97
2022-12-23T12:44:20.878Z,99468.22
2022-12-23T12:45:01.268Z,99463.09
2022-12-23T12:45:38.227Z,99456.78
2022-12-23T12:46:27.530Z,99462.56
2022-12-23T12:47:28.182Z,99464.47
2022-12-23T12:48:18.755Z,99460.53
2022-12-23T12:48:57.892Z,99472.97
2022-12-23T12:49:41.485Z,99463.72
2022-12-23T12:50:17.632Z,99464.59
2022-12-23T12:51:02.027Z,99460.13
2022-12-23T12:51:40.920Z,99462.34
2022-12-23T12:52:18.592Z,99464.53
2022-12-23T12:52:54.292Z,99457.56
2022-12-23T12:53:28.546Z,99454.94
2022-12-23T12:54:07.977Z,99459.78
2022-12-23T12:54:45.779Z,99463.00
2022-12-23T12:55:28.044Z,99463.81
2022-12-23T12:56:07.397Z,99463.81
2022-12-23T12:56:49.239Z,99456.84
2022-12-23T12:57:23.472Z,99460.88
2022-12-23T12:57:55.764Z,99459.78
2022-12-23T12:58:31.204Z,99465.41
2022-12-23T12:59:03.836Z,99462.47
2022-12-23T12:59:38.257Z,99463.53
2022-12-23T13:00:19.234Z,99461.41
2022-12-23T13:01:13.599Z,99458.47
2022-12-23T13:02:18.999Z,99464.88
2022-12-23T13:03:18.297Z,99458.91
2022-12-23T13:04:10.018Z,99461.28
2022-12-23T13:05:08.343Z,99442.47
2022-12-23T13:06:04.901Z,99448.00
2022-12-23T13:06:44.563Z,99443.19
2022-12-23T13:07:28.177Z,99447.53
2022-12-23T13:08:18.313Z,99441.69
2022-12-23T13:09:04.004Z,99443.34
2022-12-23T13:09:53.448Z,99443.63
2022-12-23T13:10:37.103Z,99440.41
2022-12-23T13:11:22.136Z,99445.50
2022-12-23T13:12:14.812Z,99449.53